Time;durP1;ratioP1;P1;durP2;ratioP2;P2;SDS_P1;SDS_P2;PMS_P1;PMS_P2;Temp;Humidity;BMP_temperature;BMP_pressure;BME280_temperature;BME280_humidity;BME280_pressure;Samples;Min_cycle;Max_cycle;Signal;HPM_P1;HPM_P2
2023/02/07 00:00:39;;;;;;;17.98;15.93;;;;;;;-1.70;73.84;100296.97;5025258;28;20025;-74
2023/02/07 00:03:04;;;;;;;18.23;16.33;;;;;;;-1.88;74.18;100311.56;5029670;28;20033;-74
2023/02/07 00:05:30;;;;;;;18.85;15.05;;;;;;;-2.13;74.76;100324.88;5058173;28;20028;-73
2023/02/07 00:07:55;;;;;;;17.95;15.85;;;;;;;-1.91;74.33;100321.50;5036834;28;20049;-73
2023/02/07 00:10:21;;;;;;;20.52;15.60;;;;;;;-1.82;73.58;100332.22;5033314;28;20094;-73
2023/02/07 00:12:46;;;;;;;19.60;17.05;;;;;;;-2.01;73.68;100337.19;5030208;28;20044;-73
2023/02/07 00:15:11;;;;;;;17.40;15.60;;;;;;;-2.25;74.22;100334.53;5030727;28;20116;-73
2023/02/07 00:17:37;;;;;;;18.88;16.77;;;;;;;-2.12;74.38;100339.75;5030183;28;20037;-73
2023/02/07 00:20:03;;;;;;;18.80;16.63;;;;;;;-2.27;75.04;100360.19;5046153;28;20037;-73
2023/02/07 00:22:28;;;;;;;18.73;16.30;;;;;;;-2.06;74.22;100370.97;5030483;28;20025;-73
2023/02/07 00:24:54;;;;;;;19.27;17.17;;;;;;;-2.32;74.07;100364.09;5046206;28;20112;-75
2023/02/07 00:27:19;;;;;;;18.95;16.90;;;;;;;-2.36;74.12;100358.22;5065484;28;20491;-76
2023/02/07 00:29:45;;;;;;;18.80;16.75;;;;;;;-2.42;74.00;100345.44;5049265;28;20021;-75
2023/02/07 00:32:10;;;;;;;20.45;17.65;;;;;;;-2.38;74.14;100346.09;5039960;28;20037;-76
2023/02/07 00:34:35;;;;;;;19.13;17.13;;;;;;;-2.44;74.21;100355.25;5045866;28;20506;-76
2023/02/07 00:37:03;;;;;;;19.08;17.17;;;;;;;-2.39;74.80;100352.28;5037921;28;20486;-75
2023/02/07 00:39:29;;;;;;;19.60;17.60;;;;;;;-2.42;74.72;100348.09;5035883;28;20036;-76
2023/02/07 00:41:55;;;;;;;21.30;19.10;;;;;;;-2.35;73.69;100341.41;5040119;28;20038;-76
2023/02/07 00:44:21;;;;;;;20.23;18.05;;;;;;;-2.30;74.03;100341.94;5046044;28;20029;-75
2023/02/07 00:46:47;;;;;;;23.85;18.70;;;;;;;-2.42;74.15;100334.03;5016030;28;20034;-75
2023/02/07 00:49:13;;;;;;;20.52;18.42;;;;;;;-2.45;73.96;100332.47;5051617;28;20108;-76
2023/02/07 00:51:38;;;;;;;20.92;18.70;;;;;;;-2.49;74.06;100336.28;5043893;28;20044;-75
2023/02/07 00:54:04;;;;;;;20.58;18.25;;;;;;;-2.65;74.47;100329.56;5046334;28;20032;-76
2023/02/07 00:56:30;;;;;;;21.08;18.88;;;;;;;-2.63;74.37;100346.13;5024855;28;20055;-75
2023/02/07 00:58:57;;;;;;;23.13;20.48;;;;;;;-2.63;73.86;100335.56;5055201;28;20025;-75
2023/02/07 01:01:24;;;;;;;21.70;19.40;;;;;;;-2.70;74.61;100347.50;5033246;28;20107;-75
2023/02/07 01:03:50;;;;;;;22.30;19.83;;;;;;;-2.78;74.61;100355.97;5062990;28;20021;-75
2023/02/07 01:06:15;;;;;;;23.08;19.67;;;;;;;-2.73;74.85;100358.28;5032697;28;20072;-74
2023/02/07 01:08:41;;;;;;;22.88;20.48;;;;;;;-2.83;74.06;100364.19;5044771;28;20026;-75
2023/02/07 01:11:09;;;;;;;23.63;21.10;;;;;;;-2.70;73.78;100356.25;5015881;28;20037;-74
2023/02/07 01:13:37;;;;;;;24.23;20.60;;;;;;;-2.72;73.78;100344.13;5036391;28;20032;-75
2023/02/07 01:16:03;;;;;;;24.75;20.17;;;;;;;-2.75;73.98;100339.09;5025391;28;20044;-75
2023/02/07 01:18:28;;;;;;;26.58;18.90;;;;;;;-3.06;74.76;100330.69;5028264;28;20466;-74
2023/02/07 01:20:54;;;;;;;24.40;19.95;;;;;;;-2.97;74.89;100327.41;5048859;28;20040;-74
2023/02/07 01:23:19;;;;;;;24.20;21.33;;;;;;;-2.95;74.86;100322.88;5036831;28;20025;-75
2023/02/07 01:25:45;;;;;;;24.38;21.75;;;;;;;-2.81;74.58;100322.75;5042012;28;20083;-75
2023/02/07 01:28:13;;;;;;;27.08;17.67;;;;;;;-2.99;74.66;100316.13;5011782;28;20021;-74
2023/02/07 01:30:42;;;;;;;23.67;20.83;;;;;;;-2.89;74.65;100311.91;5032091;28;20041;-73
2023/02/07 01:33:08;;;;;;;23.58;21.13;;;;;;;-2.84;74.64;100315.06;5032953;28;20033;-73
2023/02/07 01:35:34;;;;;;;23.58;18.73;;;;;;;-2.89;74.13;100306.63;5051787;28;20487;-73
2023/02/07 01:38:01;;;;;;;22.67;20.15;;;;;;;-2.88;73.93;100296.94;5051045;28;20024;-73
2023/02/07 01:40:27;;;;;;;24.05;17.83;;;;;;;-2.92;73.25;100301.56;5041248;28;20041;-74
2023/02/07 01:42:53;;;;;;;25.50;18.98;;;;;;;-2.90;73.12;100299.69;5032626;28;20052;-73
2023/02/07 01:45:42;;;;;;;27.45;17.52;;;;;;;-3.02;73.00;100300.53;5051714;28;20057;-73
2023/02/07 01:48:14;;;;;;;21.63;19.13;;;;;;;-2.84;72.79;100296.59;5051052;28;20091;-73
2023/02/07 01:50:42;;;;;;;22.33;19.88;;;;;;;-2.89;72.50;100311.91;5051639;28;20056;-73
2023/02/07 01:53:08;;;;;;;26.95;17.30;;;;;;;-2.91;72.78;100305.91;5068335;28;20387;-73
2023/02/07 01:55:35;;;;;;;25.30;16.55;;;;;;;-2.96;72.58;100296.63;5068027;28;20040;-73
2023/02/07 01:58:02;;;;;;;26.30;20.55;;;;;;;-3.06;73.22;100299.06;5050569;28;20025;-73
2023/02/07 02:00:28;;;;;;;25.13;19.92;;;;;;;-3.09;72.56;100306.34;5038394;28;20040;-73
2023/02/07 02:02:53;;;;;;;24.85;19.35;;;;;;;-3.20;73.50;100286.03;5031371;28;20029;-74
2023/02/07 02:05:20;;;;;;;24.65;19.85;;;;;;;-3.14;73.40;100306.66;5032470;28;20029;-74
2023/02/07 02:07:45;;;;;;;25.42;16.42;;;;;;;-3.22;73.37;100316.88;5014167;28;20021;-74
2023/02/07 02:10:20;;;;;;;25.75;17.77;;;;;;;-3.18;73.64;100325.41;5014942;28;20041;-74
2023/02/07 02:13:05;;;;;;;23.45;16.15;;;;;;;-3.10;73.37;100316.03;5031227;28;20049;-74
2023/02/07 02:15:35;;;;;;;24.20;20.45;;;;;;;-3.00;72.38;100329.41;5031308;28;20040;-73
2023/02/07 02:18:19;;;;;;;24.33;18.98;;;;;;;-2.99;72.53;100337.19;5014253;28;20645;-74
2023/02/07 02:21:19;;;;;;;23.40;20.67;;;;;;;-2.98;72.07;100325.72;5031195;28;20029;-72
2023/02/07 02:24:14;;;;;;;23.33;20.55;;;;;;;-3.06;72.30;100320.16;5031071;28;20487;-73
2023/02/07 02:27:09;;;;;;;22.17;19.73;;;;;;;-3.11;73.03;100327.53;5035124;28;20123;-73
2023/02/07 02:29:50;;;;;;;27.05;16.58;;;;;;;-3.12;73.58;100328.47;5050753;28;20037;-72
2023/02/07 02:32:39;;;;;;;27.40;16.75;;;;;;;-3.05;72.83;100327.09;5034218;28;20124;-72
2023/02/07 02:35:35;;;;;;;26.75;23.95;;;;;;;-3.20;73.07;100327.31;5051766;28;20387;-75
2023/02/07 02:38:16;;;;;;;26.70;22.40;;;;;;;-3.22;73.04;100324.78;5017514;28;20487;-74
2023/02/07 02:40:47;;;;;;;27.00;19.95;;;;;;;-3.43;72.93;100318.34;5050679;28;20033;-74
2023/02/07 02:43:31;;;;;;;30.58;18.88;;;;;;;-3.40;73.32;100315.50;5050587;28;20453;-73
2023/02/07 02:46:10;;;;;;;24.40;21.77;;;;;;;-3.53;73.16;100317.28;5051731;28;20040;-75
2023/02/07 02:48:36;;;;;;;31.42;20.75;;;;;;;-3.32;73.15;100310.56;5033286;28;20243;-75
2023/02/07 02:51:03;;;;;;;30.35;18.38;;;;;;;-3.34;73.72;100307.19;5030483;28;20391;-73
2023/02/07 02:53:28;;;;;;;27.50;17.63;;;;;;;-3.35;72.86;100296.75;5047009;28;20034;-74
2023/02/07 02:56:14;;;;;;;28.42;25.27;;;;;;;-3.36;73.11;100305.63;5030284;28;20035;-72
2023/02/07 02:58:59;;;;;;;29.92;20.70;;;;;;;-3.45;73.49;100308.88;5029562;28;20084;-74
2023/02/07 03:01:34;;;;;;;28.88;21.33;;;;;;;-3.50;73.85;100304.75;5013882;28;20122;-74
2023/02/07 03:04:14;;;;;;;33.42;20.45;;;;;;;-3.51;74.13;100318.03;5030254;28;20033;-73
2023/02/07 03:07:06;;;;;;;32.17;19.70;;;;;;;-3.61;73.42;100306.41;5029715;28;20029;-74
2023/02/07 03:09:56;;;;;;;29.25;23.98;;;;;;;-3.74;74.53;100301.16;5030021;28;20048;-73
2023/02/07 03:12:30;;;;;;;31.90;18.83;;;;;;;-3.81;75.11;100294.63;5030196;28;20047;-74
2023/02/07 03:15:34;;;;;;;31.40;20.88;;;;;;;-3.81;73.95;100293.75;5030262;28;20040;-74
2023/02/07 03:18:21;;;;;;;32.17;18.80;;;;;;;-3.82;74.12;100292.06;5012912;28;20132;-74
2023/02/07 03:20:56;;;;;;;32.13;22.05;;;;;;;-3.68;73.38;100286.72;5030146;28;20060;-74
2023/02/07 03:23:22;;;;;;;31.05;20.08;;;;;;;-3.78;74.18;100291.75;5029898;28;20431;-74
2023/02/07 03:25:50;;;;;;;30.00;26.17;;;;;;;-3.73;74.39;100286.19;5029860;28;20724;-74
2023/02/07 03:28:18;;;;;;;29.95;19.45;;;;;;;-3.76;74.39;100275.88;5029202;28;20033;-74
2023/02/07 03:30:48;;;;;;;29.02;25.92;;;;;;;-3.61;73.75;100280.09;5029965;28;20083;-73
2023/02/07 03:33:14;;;;;;;28.95;23.90;;;;;;;-4.21;75.28;100279.75;5046099;28;20030;-73
2023/02/07 03:35:46;;;;;;;30.65;18.92;;;;;;;-4.12;74.91;100283.56;5029828;28;20488;-73
2023/02/07 03:38:12;;;;;;;33.70;20.00;;;;;;;-3.98;74.52;100280.88;5048662;28;20567;-73
2023/02/07 03:40:47;;;;;;;31.70;28.30;;;;;;;-4.24;75.06;100280.81;5049689;28;20487;-73
2023/02/07 03:43:23;;;;;;;33.55;19.73;;;;;;;-4.33;75.91;100289.31;5026661;28;20487;-72
2023/02/07 03:45:49;;;;;;;31.23;19.55;;;;;;;-4.31;75.24;100299.69;5026619;28;20037;-73
2023/02/07 03:48:14;;;;;;;32.28;21.60;;;;;;;-4.31;75.98;100284.78;5037987;28;20107;-73
2023/02/07 03:50:39;;;;;;;33.15;20.27;;;;;;;-4.62;75.50;100289.50;5035534;28;20469;-73
2023/02/07 03:53:05;;;;;;;32.50;20.67;;;;;;;-4.39;75.41;100291.50;5053811;28;20033;-74
2023/02/07 03:55:31;;;;;;;32.63;19.80;;;;;;;-4.34;74.88;100295.47;5049338;28;20095;-74
2023/02/07 03:57:56;;;;;;;31.77;28.10;;;;;;;-4.39;76.14;100296.75;5019767;28;20060;-75
2023/02/07 04:00:22;;;;;;;37.20;20.40;;;;;;;-4.35;75.29;100295.59;5019362;28;20116;-74
2023/02/07 04:02:47;;;;;;;30.77;20.10;;;;;;;-4.49;76.40;100301.75;5039126;28;20103;-75
2023/02/07 04:05:13;;;;;;;29.77;26.45;;;;;;;-4.47;75.80;100299.84;5036193;28;20042;-75
2023/02/07 04:07:38;;;;;;;30.23;20.35;;;;;;;-4.40;74.96;100306.41;5041226;28;20029;-75
2023/02/07 04:10:05;;;;;;;35.45;19.27;;;;;;;-4.26;74.77;100303.75;5043124;28;20037;-75
2023/02/07 04:12:32;;;;;;;33.60;20.20;;;;;;;-4.46;75.35;100309.44;5038668;28;20028;-75
2023/02/07 04:15:03;;;;;;;31.30;27.52;;;;;;;-4.53;75.53;100300.25;5019435;28;20434;-75
2023/02/07 04:17:28;;;;;;;32.67;20.40;;;;;;;-4.69;76.17;100303.97;5057315;28;20452;-74
2023/02/07 04:19:54;;;;;;;34.67;20.15;;;;;;;-4.72;75.69;100304.16;5065255;28;20052;-74
2023/02/07 04:22:19;;;;;;;33.70;20.42;;;;;;;-4.56;75.53;100305.72;5036629;28;20102;-74
2023/02/07 04:24:45;;;;;;;32.15;28.65;;;;;;;-4.74;75.90;100291.09;5067908;28;20036;-73
2023/02/07 04:27:10;;;;;;;34.50;20.00;;;;;;;-4.67;75.76;100296.81;5034267;28;20030;-74
2023/02/07 04:29:36;;;;;;;32.80;20.70;;;;;;;-4.67;75.68;100287.16;5035117;28;20025;-74
2023/02/07 04:32:02;;;;;;;31.52;20.17;;;;;;;-4.59;75.86;100289.28;5053077;28;20059;-74
2023/02/07 04:34:27;;;;;;;32.95;21.60;;;;;;;-4.62;75.79;100282.41;5037832;28;20034;-74
2023/02/07 04:36:53;;;;;;;32.50;20.70;;;;;;;-4.92;76.87;100276.47;5032341;28;20033;-74
2023/02/07 04:39:18;;;;;;;33.55;21.85;;;;;;;-4.60;75.37;100283.19;5034427;28;20068;-74
2023/02/07 04:41:43;;;;;;;33.28;19.75;;;;;;;-4.59;74.99;100273.50;5061585;28;20038;-74
2023/02/07 04:44:09;;;;;;;32.58;19.33;;;;;;;-4.49;74.67;100285.97;5064519;28;20029;-73
2023/02/07 04:46:34;;;;;;;35.00;20.08;;;;;;;-4.42;75.20;100282.00;5069490;28;20112;-73
2023/02/07 04:48:59;;;;;;;32.38;19.85;;;;;;;-4.70;75.55;100297.00;5038778;28;20387;-74
2023/02/07 04:51:25;;;;;;;35.90;27.50;;;;;;;-4.82;75.77;100300.41;5045030;28;20048;-75
2023/02/07 04:53:50;;;;;;;36.42;22.80;;;;;;;-4.82;75.37;100303.03;5062766;28;20050;-75
2023/02/07 04:56:16;;;;;;;33.33;29.63;;;;;;;-4.74;75.29;100308.66;5049101;28;20044;-74
2023/02/07 04:58:41;;;;;;;32.97;21.25;;;;;;;-4.81;75.06;100299.47;5061955;28;20028;-74
2023/02/07 05:01:07;;;;;;;45.88;25.35;;;;;;;-4.88;75.80;100305.09;5049242;28;20037;-74
2023/02/07 05:03:32;;;;;;;45.90;26.25;;;;;;;-4.81;76.00;100310.81;5033279;28;20033;-75
2023/02/07 05:05:58;;;;;;;35.03;21.92;;;;;;;-4.79;75.49;100318.59;5046314;28;20135;-75
2023/02/07 05:08:23;;;;;;;34.35;21.58;;;;;;;-4.95;75.13;100316.91;5045679;28;20494;-74
2023/02/07 05:10:54;;;;;;;45.35;26.77;;;;;;;-5.09;76.45;100323.97;5052464;28;20111;-74
2023/02/07 05:13:21;;;;;;;61.38;35.33;;;;;;;-4.78;74.98;100322.94;5067269;28;20497;-73
2023/02/07 05:15:46;;;;;;;48.42;31.20;;;;;;;-5.02;75.70;100312.16;5048922;28;20026;-73
2023/02/07 05:18:11;;;;;;;55.30;33.25;;;;;;;-4.97;75.92;100312.72;5048120;28;20403;-74
2023/02/07 05:20:37;;;;;;;57.70;33.58;;;;;;;-4.82;74.81;100314.38;5040677;28;20175;-74
2023/02/07 05:23:02;;;;;;;35.70;22.75;;;;;;;-4.66;74.78;100325.63;5055329;28;20045;-74
2023/02/07 05:25:27;;;;;;;34.08;20.17;;;;;;;-4.58;74.24;100327.78;5052026;28;20028;-74
2023/02/07 05:27:53;;;;;;;34.08;20.65;;;;;;;-4.51;74.20;100311.53;5037923;28;20033;-74
2023/02/07 05:30:19;;;;;;;42.88;25.45;;;;;;;-4.50;74.45;100318.44;5033015;28;20119;-74
2023/02/07 05:35:30;;;;;;;37.47;22.13;;;;;;;-4.50;75.07;100310.56;5031830;28;20037;-74
2023/02/07 05:37:55;;;;;;;36.67;22.55;;;;;;;-4.53;75.17;100321.28;5031293;28;20036;-73
2023/02/07 05:40:21;;;;;;;36.97;29.45;;;;;;;-4.74;74.91;100312.13;5043011;28;20025;-73
2023/02/07 05:42:47;;;;;;;34.83;23.27;;;;;;;-5.01;75.65;100313.81;5048660;28;20202;-75
2023/02/07 05:45:12;;;;;;;41.97;23.23;;;;;;;-5.21;75.98;100314.22;5024770;28;20451;-75
2023/02/07 05:47:37;;;;;;;38.15;24.40;;;;;;;-5.34;76.30;100327.22;5051634;28;20029;-75
2023/02/07 05:50:03;;;;;;;37.70;21.80;;;;;;;-5.29;76.60;100334.81;5048397;28;20041;-75
2023/02/07 05:52:28;;;;;;;34.20;21.48;;;;;;;-5.40;76.83;100353.84;5044837;28;20026;-74
2023/02/07 05:54:54;;;;;;;33.33;21.33;;;;;;;-5.15;76.04;100348.81;5057800;28;20047;-75
2023/02/07 05:57:20;;;;;;;32.17;21.40;;;;;;;-5.02;75.59;100354.19;5034602;28;21424;-75
2023/02/07 05:59:45;;;;;;;32.28;20.17;;;;;;;-5.09;76.25;100368.63;5018324;28;20038;-75
2023/02/07 06:02:11;;;;;;;31.35;27.80;;;;;;;-5.08;75.97;100370.28;5048044;28;20037;-75
2023/02/07 06:04:36;;;;;;;37.08;21.38;;;;;;;-5.16;76.43;100377.81;5048292;28;20132;-75
2023/02/07 06:07:02;;;;;;;33.22;20.27;;;;;;;-5.21;77.08;100382.47;5061369;28;20021;-75
2023/02/07 06:09:27;;;;;;;36.97;21.00;;;;;;;-5.19;76.63;100389.34;5031245;28;20140;-75
2023/02/07 06:11:54;;;;;;;35.40;20.73;;;;;;;-5.05;76.10;100397.22;5028003;28;20025;-75
2023/02/07 06:14:20;;;;;;;35.15;21.38;;;;;;;-5.22;76.83;100404.41;5041197;28;20068;-74
2023/02/07 06:16:45;;;;;;;37.17;21.25;;;;;;;-5.09;76.30;100405.38;5034760;28;20071;-74
2023/02/07 06:19:11;;;;;;;36.60;20.67;;;;;;;-5.08;76.39;100407.06;5023785;28;20037;-74
2023/02/07 06:21:37;;;;;;;32.13;24.95;;;;;;;-5.09;76.63;100410.66;5039126;28;20029;-74
2023/02/07 06:24:03;;;;;;;31.50;19.67;;;;;;;-5.06;76.04;100405.19;5058168;28;20045;-74
2023/02/07 06:26:28;;;;;;;34.72;23.08;;;;;;;-5.12;76.52;100405.56;5031067;28;20018;-74
2023/02/07 06:28:54;;;;;;;36.08;22.17;;;;;;;-5.17;76.12;100418.13;5031631;28;20064;-74
2023/02/07 06:31:19;;;;;;;33.42;19.45;;;;;;;-5.40;77.70;100410.75;5032181;28;20032;-74
2023/02/07 06:33:44;;;;;;;36.65;25.25;;;;;;;-5.33;77.22;100433.94;5030832;28;20064;-74
2023/02/07 06:36:10;;;;;;;36.60;22.48;;;;;;;-5.54;78.04;100418.59;5014129;28;20034;-74
2023/02/07 06:38:35;;;;;;;33.53;20.98;;;;;;;-5.46;78.34;100416.38;5046667;28;20045;-74
2023/02/07 06:41:01;;;;;;;35.13;21.67;;;;;;;-5.40;76.59;100416.00;5046794;28;20029;-74
2023/02/07 06:43:26;;;;;;;35.35;21.10;;;;;;;-5.60;77.70;100420.63;5030784;28;20049;-74
2023/02/07 06:45:51;;;;;;;38.47;21.95;;;;;;;-5.64;77.12;100427.00;5030617;28;20108;-73
2023/02/07 06:48:17;;;;;;;35.33;21.45;;;;;;;-5.67;78.36;100450.78;5029878;28;20040;-76
2023/02/07 06:50:42;;;;;;;38.10;21.48;;;;;;;-5.84;78.11;100443.03;5030760;28;20033;-76
2023/02/07 06:53:07;;;;;;;37.03;22.33;;;;;;;-5.51;77.60;100444.66;5030716;28;20116;-74
2023/02/07 06:55:37;;;;;;;37.05;21.63;;;;;;;-5.42;76.89;100449.38;5045928;28;20035;-74
2023/02/07 06:58:04;;;;;;;36.47;21.08;;;;;;;-5.28;76.89;100447.66;5023631;28;20392;-74
2023/02/07 07:00:29;;;;;;;34.83;21.35;;;;;;;-5.16;76.21;100446.09;5062578;28;20025;-74
2023/02/07 07:02:55;;;;;;;34.15;21.45;;;;;;;-5.31;76.68;100450.44;5030559;28;20196;-74
2023/02/07 07:05:20;;;;;;;34.15;20.83;;;;;;;-5.14;75.99;100444.22;5062625;28;20021;-74
2023/02/07 07:07:46;;;;;;;36.17;21.33;;;;;;;-5.08;75.48;100451.72;5055634;28;20189;-74
2023/02/07 07:10:12;;;;;;;34.25;20.65;;;;;;;-5.04;75.34;100440.09;5046131;28;20031;-74
2023/02/07 07:12:38;;;;;;;36.30;20.90;;;;;;;-4.83;74.82;100454.56;5058115;28;20037;-74
2023/02/07 07:15:04;;;;;;;36.10;20.50;;;;;;;-4.69;74.33;100451.94;5044958;28;20074;-73
2023/02/07 07:17:29;;;;;;;34.03;21.00;;;;;;;-4.77;74.32;100448.97;5038485;28;20403;-76
2023/02/07 07:19:55;;;;;;;32.30;19.50;;;;;;;-4.76;74.55;100450.63;5053768;28;20053;-74
2023/02/07 07:22:20;;;;;;;32.97;19.35;;;;;;;-4.85;74.94;100453.81;5046776;28;20454;-74
2023/02/07 07:24:46;;;;;;;34.55;19.95;;;;;;;-5.07;76.26;100448.16;5031953;28;20047;-75
2023/02/07 07:27:11;;;;;;;32.60;20.08;;;;;;;-5.14;76.75;100428.44;5057496;28;20037;-75
2023/02/07 07:29:37;;;;;;;37.55;20.75;;;;;;;-5.16;76.48;100430.34;5029862;28;20037;-74
2023/02/07 07:32:02;;;;;;;37.85;21.63;;;;;;;-5.01;75.99;100432.03;5029978;28;20041;-74
2023/02/07 07:34:28;;;;;;;37.00;21.92;;;;;;;-5.05;75.85;100427.91;4997036;28;20075;-74
2023/02/07 07:36:55;;;;;;;34.80;21.10;;;;;;;-4.90;75.83;100426.97;5044611;28;20044;-75
2023/02/07 07:39:22;;;;;;;38.85;22.27;;;;;;;-4.74;75.52;100433.00;5029812;28;20021;-74
2023/02/07 07:41:47;;;;;;;34.00;21.17;;;;;;;-4.73;74.85;100433.84;5054766;28;20522;-74
2023/02/07 07:44:27;;;;;;;34.00;21.13;;;;;;;-4.60;74.43;100430.38;5051389;28;20040;-74
2023/02/07 07:46:53;;;;;;;38.38;22.42;;;;;;;-4.35;74.79;100430.56;5039178;28;20033;-74
2023/02/07 07:49:18;;;;;;;31.80;20.00;;;;;;;-4.53;75.06;100425.59;5032966;28;20442;-74
2023/02/07 07:51:45;;;;;;;36.42;20.63;;;;;;;-4.45;74.29;100433.84;5042268;28;20443;-74
2023/02/07 07:54:10;;;;;;;30.17;26.17;;;;;;;-4.13;73.15;100437.09;5035788;28;20082;-74
2023/02/07 07:56:35;;;;;;;35.10;19.42;;;;;;;-4.12;72.67;100439.63;5037172;28;20033;-74
2023/02/07 07:59:01;;;;;;;34.70;19.83;;;;;;;-4.10;72.69;100440.34;5036813;28;20497;-77
2023/02/07 08:01:27;;;;;;;30.73;25.42;;;;;;;-4.11;72.32;100437.84;5017343;28;20045;-74
2023/02/07 08:03:52;;;;;;;31.48;22.48;;;;;;;-3.88;72.81;100440.69;5049519;28;20121;-74
2023/02/07 08:06:18;;;;;;;33.35;19.10;;;;;;;-3.82;72.03;100442.06;5036911;28;20116;-74
2023/02/07 08:08:43;;;;;;;30.88;20.70;;;;;;;-3.75;72.39;100446.00;5017002;28;20013;-74
2023/02/07 08:11:09;;;;;;;34.72;20.52;;;;;;;-3.76;71.94;100444.31;5032512;28;20033;-74
2023/02/07 08:13:35;;;;;;;33.17;20.77;;;;;;;-3.78;72.42;100449.66;5065020;28;20029;-74
2023/02/07 08:16:02;;;;;;;29.67;18.73;;;;;;;-3.99;73.71;100440.50;5044081;28;20029;-74
2023/02/07 08:18:28;;;;;;;31.38;21.30;;;;;;;-3.84;72.99;100446.59;5040248;28;20433;-74
2023/02/07 08:20:53;;;;;;;33.10;20.05;;;;;;;-3.75;72.77;100440.72;5031392;28;20087;-75
2023/02/07 08:23:19;;;;;;;31.75;19.55;;;;;;;-3.95;73.45;100444.66;5029964;28;20054;-74
2023/02/07 08:25:45;;;;;;;34.55;20.38;;;;;;;-3.84;73.42;100446.59;5049664;28;20106;-74
2023/02/07 08:28:11;;;;;;;30.30;26.58;;;;;;;-3.58;73.32;100451.88;5052891;28;20028;-74
2023/02/07 08:30:37;;;;;;;37.95;20.33;;;;;;;-3.68;73.10;100442.03;5042677;28;20041;-74
2023/02/07 08:33:02;;;;;;;33.00;19.40;;;;;;;-3.59;73.08;100444.06;5049984;28;20052;-74
2023/02/07 08:35:27;;;;;;;30.30;19.65;;;;;;;-3.35;72.70;100439.81;5016334;28;20574;-74
2023/02/07 08:37:54;;;;;;;31.23;19.77;;;;;;;-3.38;71.24;100437.38;5032475;28;20411;-74
2023/02/07 08:40:20;;;;;;;26.38;22.80;;;;;;;-3.52;70.63;100440.06;5041194;28;20060;-74
2023/02/07 08:42:45;;;;;;;25.50;22.80;;;;;;;-3.48;69.57;100433.69;5032480;28;20451;-75
2023/02/07 08:45:14;;;;;;;30.77;17.67;;;;;;;-3.47;70.51;100435.34;5055414;28;20561;-75
2023/02/07 08:47:40;;;;;;;44.75;35.72;;;;;;;-3.16;69.93;100439.44;5038206;28;20025;-76
2023/02/07 08:50:06;;;;;;;64.90;44.10;;;;;;;-3.00;68.96;100430.41;5068618;28;20036;-76
2023/02/07 08:52:31;;;;;;;26.80;18.45;;;;;;;-3.41;68.54;100429.72;5052243;28;20035;-76
2023/02/07 08:54:57;;;;;;;29.85;17.55;;;;;;;-3.46;68.33;100429.16;5035748;28;20132;-76
2023/02/07 08:57:24;;;;;;;26.55;22.40;;;;;;;-3.19;69.07;100414.13;5054836;28;20029;-74
2023/02/07 08:59:51;;;;;;;27.55;17.33;;;;;;;-3.09;67.94;100420.47;5062002;28;20128;-74
2023/02/07 09:02:16;;;;;;;26.80;16.80;;;;;;;-3.07;67.05;100420.38;5046626;28;20025;-75
2023/02/07 09:04:42;;;;;;;23.63;20.55;;;;;;;-3.00;67.70;100426.91;5047588;28;20051;-74
2023/02/07 09:07:08;;;;;;;23.52;21.05;;;;;;;-2.81;67.79;100415.03;5035945;28;20046;-74
2023/02/07 09:09:35;;;;;;;25.02;20.33;;;;;;;-2.83;66.86;100416.94;5017201;28;20120;-75
2023/02/07 09:12:00;;;;;;;24.80;17.90;;;;;;;-2.91;67.28;100431.56;5025647;28;20022;-76
2023/02/07 09:14:26;;;;;;;28.55;17.02;;;;;;;-2.82;67.47;100423.88;5022658;28;20045;-75
2023/02/07 09:16:51;;;;;;;23.98;20.38;;;;;;;-2.75;66.49;100418.19;5054254;28;20045;-76
2023/02/07 09:19:17;;;;;;;22.80;20.27;;;;;;;-2.62;66.31;100419.00;5049886;28;20029;-76
2023/02/07 09:21:42;;;;;;;23.10;20.00;;;;;;;-2.83;66.44;100392.34;5033035;28;20503;-76
2023/02/07 09:24:07;;;;;;;22.10;19.70;;;;;;;-2.45;66.50;100422.16;5048234;28;20041;-75
2023/02/07 09:26:34;;;;;;;22.30;19.77;;;;;;;-2.50;65.20;100410.25;5031816;28;20025;-76
2023/02/07 09:28:59;;;;;;;22.52;20.13;;;;;;;-2.40;64.87;100408.63;5030644;28;20495;-76
2023/02/07 09:31:25;;;;;;;27.65;16.80;;;;;;;-2.51;64.10;100403.28;5031897;28;20033;-76
2023/02/07 09:33:51;;;;;;;23.17;17.67;;;;;;;-2.46;63.66;100393.25;5049095;28;20033;-76
2023/02/07 09:36:19;;;;;;;21.17;18.67;;;;;;;-2.50;63.79;100395.28;5047830;28;20111;-76
2023/02/07 09:38:45;;;;;;;21.55;18.48;;;;;;;-2.44;63.18;100401.91;5068069;28;20052;-76
2023/02/07 09:41:22;;;;;;;20.67;17.90;;;;;;;-2.27;62.92;100399.75;5052810;28;20025;-75
2023/02/07 09:44:04;;;;;;;19.25;17.35;;;;;;;-2.23;62.56;100400.38;5015625;28;20050;-76
2023/02/07 09:46:33;;;;;;;21.40;18.52;;;;;;;-2.19;62.91;100412.38;5048643;28;20505;-75
2023/02/07 09:49:22;;;;;;;19.65;17.65;;;;;;;-2.12;63.45;100406.56;5030789;28;20037;-76
2023/02/07 09:51:49;;;;;;;20.00;17.52;;;;;;;-2.11;62.62;100410.06;5051861;28;20040;-76
2023/02/07 09:54:28;;;;;;;21.42;17.63;;;;;;;-1.92;62.90;100394.59;5048578;28;20545;-75
2023/02/07 09:56:56;;;;;;;20.27;17.98;;;;;;;-2.00;61.33;100401.34;5044684;28;20132;-74
2023/02/07 09:59:44;;;;;;;20.15;17.95;;;;;;;-1.99;62.22;100410.97;5052568;28;20090;-74
2023/02/07 10:02:21;;;;;;;20.48;17.70;;;;;;;-1.90;61.21;100408.50;5027857;28;20410;-74
2023/02/07 10:04:48;;;;;;;19.48;17.42;;;;;;;-1.89;61.71;100412.81;5041239;28;20037;-74
2023/02/07 10:07:14;;;;;;;19.40;17.38;;;;;;;-1.79;62.20;100405.06;5061301;28;20063;-75
2023/02/07 10:09:42;;;;;;;20.70;17.98;;;;;;;-1.67;61.70;100410.31;5042976;28;20127;-74
2023/02/07 10:12:17;;;;;;;21.13;17.17;;;;;;;-1.70;61.37;100412.31;5047543;28;20120;-74
2023/02/07 10:15:00;;;;;;;19.08;17.13;;;;;;;-1.70;61.17;100399.97;5027389;28;20048;-75
2023/02/07 10:18:04;;;;;;;19.77;17.58;;;;;;;-1.57;60.62;100406.03;5059395;28;20125;-73
2023/02/07 10:20:40;;;;;;;19.38;17.33;;;;;;;-1.61;61.02;100394.00;5037796;28;20053;-75
2023/02/07 10:23:31;;;;;;;19.90;17.10;;;;;;;-1.68;59.93;100413.91;5035573;28;20050;-75
2023/02/07 10:26:17;;;;;;;18.77;16.85;;;;;;;-1.62;60.57;100410.81;5040245;28;20037;-74
2023/02/07 10:28:56;;;;;;;20.73;15.85;;;;;;;-1.35;60.84;100405.25;5045032;28;20041;-73
2023/02/07 10:31:24;;;;;;;17.35;15.45;;;;;;;-1.31;59.38;100405.91;5019282;28;20124;-75
2023/02/07 10:34:16;;;;;;;17.92;15.48;;;;;;;-1.39;59.83;100409.09;5041863;28;20028;-74
2023/02/07 10:36:45;;;;;;;17.33;15.52;;;;;;;-1.14;59.93;100397.50;5033037;28;20115;-74
2023/02/07 10:39:23;;;;;;;18.05;15.45;;;;;;;-1.17;59.27;100397.78;5045477;28;20024;-74
2023/02/07 10:41:48;;;;;;;18.23;16.23;;;;;;;-1.19;59.06;100394.41;5042861;28;20072;-74
2023/02/07 10:44:18;;;;;;;17.58;15.13;;;;;;;-1.01;59.10;100387.72;5031654;28;20053;-74
2023/02/07 10:46:45;;;;;;;16.70;14.90;;;;;;;-1.05;58.89;100375.69;4998922;28;20048;-77
2023/02/07 10:49:24;;;;;;;17.33;15.27;;;;;;;-1.12;58.43;100379.75;5031069;28;20065;-74
2023/02/07 10:51:50;;;;;;;16.83;13.95;;;;;;;-1.18;57.87;100370.50;5048451;28;20030;-74
2023/02/07 10:54:23;;;;;;;17.52;14.75;;;;;;;-1.12;57.82;100369.19;5031552;28;20438;-74
2023/02/07 10:56:53;;;;;;;14.95;13.38;;;;;;;-0.86;57.58;100370.66;5031093;28;20091;-75
2023/02/07 10:59:30;;;;;;;16.38;14.52;;;;;;;-0.77;58.02;100359.38;5037606;28;20124;-74
2023/02/07 11:01:56;;;;;;;16.58;14.32;;;;;;;-0.73;57.60;100363.47;5051899;28;20032;-74
2023/02/07 11:04:26;;;;;;;15.68;13.65;;;;;;;-0.79;57.13;100356.00;5030731;28;20021;-75
2023/02/07 11:06:59;;;;;;;15.95;13.60;;;;;;;-0.76;56.86;100347.81;5030983;28;20064;-75
2023/02/07 11:09:25;;;;;;;15.25;13.20;;;;;;;-0.66;57.38;100335.56;5065996;28;20052;-75
2023/02/07 11:11:52;;;;;;;16.55;13.73;;;;;;;-0.61;57.47;100349.28;5036900;28;20071;-75
2023/02/07 11:14:25;;;;;;;17.27;14.00;;;;;;;-0.64;56.81;100341.56;5041207;28;20061;-75
2023/02/07 11:16:51;;;;;;;14.38;12.85;;;;;;;-0.49;57.33;100343.00;5059348;28;20064;-75
2023/02/07 11:19:28;;;;;;;16.30;12.90;;;;;;;-0.39;56.96;100338.66;5024300;28;20036;-76